Time;durP1;ratioP1;P1;durP2;ratioP2;P2;SDS_P1;SDS_P2;PMS_P1;PMS_P2;Temp;Humidity;BMP_temperature;BMP_pressure;BME280_temperature;BME280_humidity;BME280_pressure;Samples;Min_cycle;Max_cycle;Signal;HPM_P1;HPM_P2
2023/08/12 04:22:32;;;;;;;14.82;7.80;;;;;;;20.45;100.00;100346.59;5109739;27;20395;-69
2023/08/12 04:24:58;;;;;;;12.35;7.35;;;;;;;20.46;100.00;100348.25;5109755;28;20040;-69
2023/08/12 04:27:23;;;;;;;13.23;8.13;;;;;;;20.44;100.00;100348.44;5109701;28;20032;-69
2023/08/12 04:29:49;;;;;;;13.65;9.05;;;;;;;20.44;100.00;100350.34;5108117;28;20454;-69
2023/08/12 04:32:15;;;;;;;12.32;8.48;;;;;;;20.46;100.00;100340.13;5108258;28;20478;-69
2023/08/12 04:34:41;;;;;;;10.88;7.57;;;;;;;20.47;100.00;100342.59;5108076;28;20096;-68
2023/08/12 04:37:07;;;;;;;13.07;7.68;;;;;;;20.49;100.00;100337.78;5109473;28;20036;-69
2023/08/12 04:39:32;;;;;;;10.60;7.10;;;;;;;20.48;100.00;100346.97;5109266;28;20060;-68
2023/08/12 04:41:58;;;;;;;14.15;9.10;;;;;;;20.48;100.00;100335.31;5108100;28;20047;-69
2023/08/12 04:44:25;;;;;;;14.15;8.88;;;;;;;20.51;100.00;100329.41;5108043;28;20063;-69
2023/08/12 04:46:51;;;;;;;14.63;7.50;;;;;;;20.51;100.00;100343.78;5107059;28;20117;-69
2023/08/12 04:49:17;;;;;;;14.20;8.40;;;;;;;20.53;100.00;100347.06;5107781;28;20036;-69
2023/08/12 04:51:43;;;;;;;15.45;8.43;;;;;;;20.55;100.00;100352.25;5108060;28;20389;-68
2023/08/12 04:54:08;;;;;;;14.18;8.70;;;;;;;20.56;100.00;100343.06;5107895;28;20062;-68
2023/08/12 04:56:34;;;;;;;12.90;8.10;;;;;;;20.58;100.00;100341.75;5107859;28;20035;-68
2023/08/12 04:59:00;;;;;;;12.63;7.70;;;;;;;20.61;100.00;100343.19;5107519;28;20070;-68
2023/08/12 05:01:25;;;;;;;12.70;7.70;;;;;;;20.63;100.00;100337.53;5105448;28;20060;-68
2023/08/12 05:03:51;;;;;;;14.15;7.78;;;;;;;20.65;100.00;100338.09;5107549;28;20085;-68
2023/08/12 05:06:17;;;;;;;13.00;7.78;;;;;;;20.68;100.00;100329.53;5107729;28;20074;-68
2023/08/12 05:08:42;;;;;;;11.70;7.88;;;;;;;20.67;100.00;100317.88;5107518;28;20711;-69
2023/08/12 05:11:07;;;;;;;18.42;10.13;;;;;;;20.68;100.00;100324.94;5100606;28;20032;-68
2023/08/12 05:13:34;;;;;;;21.27;11.40;;;;;;;20.66;100.00;100324.34;5104367;28;20118;-68
2023/08/12 05:16:00;;;;;;;18.05;8.88;;;;;;;20.68;100.00;100329.53;5107384;28;20136;-68
2023/08/12 05:18:28;;;;;;;11.23;7.40;;;;;;;20.69;100.00;100321.16;5107154;28;20398;-66
2023/08/12 05:20:54;;;;;;;12.45;7.25;;;;;;;20.71;100.00;100319.03;5108427;28;20095;-67
2023/08/12 05:23:20;;;;;;;13.27;7.43;;;;;;;20.72;100.00;100323.38;5107284;28;20040;-67
2023/08/12 05:25:46;;;;;;;10.57;7.80;;;;;;;20.74;100.00;100325.88;5107219;28;20394;-68
2023/08/12 05:28:11;;;;;;;14.30;8.75;;;;;;;20.73;100.00;100332.31;5108433;28;20085;-67
2023/08/12 05:30:38;;;;;;;12.88;8.05;;;;;;;20.74;100.00;100334.00;5108435;28;20089;-67
2023/08/12 05:33:04;;;;;;;13.85;7.93;;;;;;;20.77;100.00;100333.50;5099582;28;20042;-68
2023/08/12 05:35:36;;;;;;;14.15;8.10;;;;;;;20.78;100.00;100335.16;5094717;28;20038;-67
2023/08/12 05:38:01;;;;;;;13.82;7.97;;;;;;;20.79;100.00;100332.19;5094650;28;20032;-67
2023/08/12 05:40:27;;;;;;;12.75;9.07;;;;;;;20.82;100.00;100339.84;5094485;28;20044;-67
2023/08/12 05:42:53;;;;;;;16.20;8.40;;;;;;;20.85;100.00;100338.53;5094594;28;20031;-67
2023/08/12 05:45:18;;;;;;;16.10;8.02;;;;;;;20.88;100.00;100350.81;5094579;28;20513;-67
2023/08/12 05:47:44;;;;;;;13.50;8.00;;;;;;;20.87;100.00;100349.97;5094549;28;20043;-67
2023/08/12 05:50:09;;;;;;;14.55;9.30;;;;;;;20.90;100.00;100349.50;5094257;28;20064;-68
2023/08/12 05:52:35;;;;;;;13.68;8.45;;;;;;;20.90;100.00;100345.97;5094666;28;20128;-67
2023/08/12 05:55:00;;;;;;;12.15;8.30;;;;;;;20.87;100.00;100355.41;5094415;28;20055;-67
2023/08/12 05:57:25;;;;;;;17.48;8.98;;;;;;;20.91;100.00;100355.72;5094222;28;20494;-67
2023/08/12 05:59:51;;;;;;;16.60;9.70;;;;;;;20.92;100.00;100357.38;5094033;28;20032;-67
2023/08/12 06:02:17;;;;;;;14.43;8.40;;;;;;;20.96;100.00;100370.19;5094198;28;20052;-67
2023/08/12 06:04:42;;;;;;;12.80;8.20;;;;;;;20.98;100.00;100357.22;5094277;28;20047;-67
2023/08/12 06:07:07;;;;;;;13.48;8.35;;;;;;;21.03;100.00;100351.09;5094117;28;20111;-67
2023/08/12 06:09:33;;;;;;;11.73;7.85;;;;;;;21.08;100.00;100362.88;5094010;28;20082;-67
2023/08/12 06:11:58;;;;;;;13.82;8.40;;;;;;;21.18;100.00;100356.81;5094104;28;20390;-67
2023/08/12 06:14:23;;;;;;;10.90;7.50;;;;;;;21.24;100.00;100358.56;5094202;28;20119;-67
2023/08/12 06:16:49;;;;;;;13.82;8.30;;;;;;;21.27;100.00;100374.38;5094135;28;20032;-67
2023/08/12 06:19:14;;;;;;;13.63;8.23;;;;;;;21.34;100.00;100366.13;5093843;28;20394;-67
2023/08/12 06:21:40;;;;;;;12.07;7.57;;;;;;;21.38;100.00;100357.25;5093845;28;20054;-67
2023/08/12 06:24:05;;;;;;;18.17;8.63;;;;;;;21.44;100.00;100354.66;5093934;28;20036;-67
2023/08/12 06:26:31;;;;;;;10.48;7.32;;;;;;;21.53;100.00;100355.94;5093855;28;20410;-67
2023/08/12 06:28:56;;;;;;;12.45;7.68;;;;;;;21.59;100.00;100349.53;5093549;28;20042;-67
2023/08/12 06:31:21;;;;;;;10.95;7.35;;;;;;;21.71;100.00;100346.75;5093904;28;20040;-67
2023/08/12 06:33:47;;;;;;;13.25;7.75;;;;;;;21.80;100.00;100343.41;5093911;28;20085;-67
2023/08/12 06:36:12;;;;;;;14.18;7.05;;;;;;;21.94;98.71;100346.63;5093711;28;20486;-66
2023/08/12 06:38:37;;;;;;;13.15;7.18;;;;;;;22.02;97.82;100353.53;5093467;28;20036;-67
2023/08/12 06:41:03;;;;;;;13.20;7.03;;;;;;;22.08;98.54;100349.81;5093558;28;20040;-66
2023/08/12 06:43:28;;;;;;;12.32;7.20;;;;;;;22.11;99.46;100354.81;5095159;28;20055;-66
2023/08/12 06:45:54;;;;;;;15.93;8.45;;;;;;;22.13;98.81;100350.75;5095326;28;20039;-66
2023/08/12 06:48:19;;;;;;;14.43;7.35;;;;;;;22.18;99.29;100345.44;5093215;28;20063;-66
2023/08/12 06:50:45;;;;;;;12.00;8.10;;;;;;;22.23;100.00;100352.81;5093476;28;20115;-66
2023/08/12 06:53:10;;;;;;;11.45;7.95;;;;;;;22.29;100.00;100351.81;5092059;28;20496;-65
2023/08/12 06:55:36;;;;;;;15.80;7.35;;;;;;;22.31;100.00;100354.31;5093300;28;20036;-66
2023/08/12 06:58:02;;;;;;;14.55;7.63;;;;;;;22.31;100.00;100355.13;5094940;28;20471;-67
2023/08/12 07:00:27;;;;;;;11.50;7.45;;;;;;;22.32;100.00;100353.22;5093462;28;20066;-65
2023/08/12 07:02:53;;;;;;;15.90;8.40;;;;;;;22.31;100.00;100349.69;5093135;28;20044;-66
2023/08/12 07:05:18;;;;;;;11.75;7.28;;;;;;;22.33;100.00;100342.13;5093368;28;20040;-66
2023/08/12 07:07:44;;;;;;;15.45;8.82;;;;;;;22.45;100.00;100347.47;5093134;28;20040;-66
2023/08/12 07:10:10;;;;;;;13.02;7.47;;;;;;;22.58;100.00;100355.25;5093017;28;20410;-66
2023/08/12 07:12:36;;;;;;;12.05;7.00;;;;;;;22.64;99.53;100350.72;5094505;28;20032;-66
2023/08/12 07:15:01;;;;;;;12.10;7.38;;;;;;;22.72;97.86;100358.44;5095444;28;20414;-66
2023/08/12 07:17:26;;;;;;;13.30;7.55;;;;;;;22.75;97.47;100360.63;5093248;28;20051;-66
2023/08/12 07:19:52;;;;;;;15.65;8.18;;;;;;;22.75;98.80;100366.06;5092519;28;20051;-66
2023/08/12 07:22:19;;;;;;;14.07;7.45;;;;;;;22.80;97.58;100363.41;5092704;28;20039;-66
2023/08/12 07:24:45;;;;;;;15.57;8.10;;;;;;;22.85;97.65;100355.34;5092786;28;20113;-66
2023/08/12 07:27:10;;;;;;;9.40;7.28;;;;;;;22.97;97.50;100355.25;5092718;28;20032;-66
2023/08/12 07:29:36;;;;;;;15.98;7.75;;;;;;;23.07;97.83;100352.66;5092548;28;20406;-66
2023/08/12 07:32:01;;;;;;;15.13;7.50;;;;;;;23.13;96.53;100354.38;5092515;28;20046;-65
2023/08/12 07:34:26;;;;;;;10.38;7.18;;;;;;;23.11;95.84;100350.28;5092670;28;20032;-65
2023/08/12 07:36:52;;;;;;;13.07;7.43;;;;;;;23.14;95.55;100347.84;5092549;28;20486;-65
2023/08/12 07:39:17;;;;;;;14.95;8.02;;;;;;;23.10;95.81;100349.44;5092235;28;20063;-65
2023/08/12 07:41:43;;;;;;;13.38;7.80;;;;;;;23.08;96.82;100337.19;5092498;28;20097;-65
2023/08/12 07:44:08;;;;;;;11.00;7.90;;;;;;;23.01;97.54;100324.59;5092398;28;20432;-65
2023/08/12 07:46:33;;;;;;;13.95;8.10;;;;;;;23.04;96.17;100339.59;5092445;28;20044;-65
2023/08/12 07:48:59;;;;;;;10.00;7.00;;;;;;;23.10;96.32;100341.31;5092207;28;20032;-65
2023/08/12 07:51:24;;;;;;;15.18;7.63;;;;;;;23.23;95.92;100343.63;5092380;28;20051;-65
2023/08/12 07:53:50;;;;;;;14.05;7.82;;;;;;;23.30;95.70;100340.72;5092325;28;20089;-65
2023/08/12 07:56:15;;;;;;;11.68;7.55;;;;;;;23.40;94.47;100335.38;5091864;28;20093;-65
2023/08/12 07:58:41;;;;;;;12.75;8.02;;;;;;;23.51;95.15;100341.75;5091961;28;20032;-65
2023/08/12 08:01:08;;;;;;;13.00;8.32;;;;;;;23.66;96.07;100350.06;5092130;28;20031;-65
2023/08/12 08:03:34;;;;;;;14.65;7.45;;;;;;;23.72;91.93;100337.34;5092457;28;20398;-66
2023/08/12 08:05:59;;;;;;;15.35;8.50;;;;;;;23.69;92.62;100335.16;5092006;28;20044;-66
2023/08/12 08:08:24;;;;;;;15.30;7.40;;;;;;;23.76;91.50;100333.06;5091816;28;20044;-65
2023/08/12 08:10:50;;;;;;;12.82;7.78;;;;;;;23.77;92.01;100324.63;5091941;28;20040;-65
2023/08/12 08:13:15;;;;;;;11.15;7.18;;;;;;;23.86;91.90;100324.16;5091946;28;20123;-65
2023/08/12 08:15:40;;;;;;;12.77;7.85;;;;;;;23.89;92.12;100331.81;5091890;28;20089;-65
2023/08/12 08:18:06;;;;;;;12.00;7.97;;;;;;;23.89;92.03;100337.25;5092002;28;20050;-66
2023/08/12 08:20:31;;;;;;;9.65;7.15;;;;;;;23.95;92.28;100338.94;5091867;28;20067;-66
2023/08/12 08:22:57;;;;;;;11.57;7.55;;;;;;;24.08;91.28;100333.88;5091965;28;20536;-66
2023/08/12 08:25:22;;;;;;;12.35;7.70;;;;;;;24.22;88.33;100327.97;5091727;28;20032;-65
2023/08/12 08:27:48;;;;;;;14.15;7.95;;;;;;;24.36;86.57;100331.91;5091977;28;20051;-66
2023/08/12 08:30:13;;;;;;;14.88;7.43;;;;;;;24.53;89.48;100332.59;5091557;28;20236;-66
2023/08/12 08:32:38;;;;;;;12.45;7.43;;;;;;;24.53;89.26;100327.13;5091824;28;20406;-66
2023/08/12 08:35:04;;;;;;;11.38;7.30;;;;;;;24.63;88.97;100324.44;5091829;28;20046;-66
2023/08/12 08:37:30;;;;;;;13.40;7.50;;;;;;;24.74;87.25;100321.78;5091801;28;20066;-66
2023/08/12 08:39:55;;;;;;;12.50;8.10;;;;;;;24.91;87.24;100319.72;5091424;28;20047;-66
2023/08/12 08:42:24;;;;;;;11.93;7.25;;;;;;;25.00;85.44;100314.56;5091782;28;20036;-66
2023/08/12 08:44:52;;;;;;;12.77;7.18;;;;;;;25.10;85.39;100322.78;5091874;28;20085;-65
2023/08/12 08:47:24;;;;;;;11.45;8.02;;;;;;;25.22;84.71;100315.19;5091583;28;20036;-65
2023/08/12 08:49:50;;;;;;;12.98;8.07;;;;;;;25.43;84.71;100310.63;5091947;28;20032;-66
2023/08/12 08:52:17;;;;;;;15.40;7.93;;;;;;;25.48;81.56;100318.78;5091494;28;20055;-65
2023/08/12 08:54:42;;;;;;;16.00;7.15;;;;;;;25.56;80.20;100317.44;5091609;28;20593;-66
2023/08/12 08:57:08;;;;;;;13.73;7.05;;;;;;;25.82;80.28;100329.22;5091471;28;20139;-66
2023/08/12 08:59:34;;;;;;;12.13;6.88;;;;;;;25.95;79.62;100328.69;5091412;28;20081;-65
2023/08/12 09:02:00;;;;;;;10.23;7.07;;;;;;;25.97;79.43;100319.16;5091729;28;20375;-66
2023/08/12 09:04:27;;;;;;;14.73;7.70;;;;;;;26.13;79.86;100324.59;5091516;28;20058;-66
2023/08/12 09:06:53;;;;;;;14.70;7.57;;;;;;;26.18;80.09;100324.59;5091381;28;20040;-66
2023/08/12 09:09:20;;;;;;;11.48;7.15;;;;;;;26.58;78.23;100323.72;5094907;28;20036;-66
2023/08/12 09:11:47;;;;;;;12.27;7.80;;;;;;;26.62;75.02;100319.34;5095172;28;20545;-66
2023/08/12 09:14:13;;;;;;;13.32;7.28;;;;;;;26.73;77.92;100325.56;5095265;28;20506;-65
2023/08/12 09:16:38;;;;;;;11.02;7.82;;;;;;;26.70;76.94;100317.94;5095282;28;20043;-66
2023/08/12 09:19:04;;;;;;;15.02;8.27;;;;;;;26.99;76.82;100307.97;5095088;28;20044;-66
2023/08/12 09:21:30;;;;;;;12.55;7.10;;;;;;;26.99;73.48;100304.44;5094860;28;20533;-65
2023/08/12 09:23:56;;;;;;;10.77;7.00;;;;;;;26.94;73.84;100299.81;5095070;28;20059;-65
2023/08/12 09:26:21;;;;;;;10.80;6.80;;;;;;;26.96;74.93;100297.63;5094920;28;20039;-66
2023/08/12 09:28:48;;;;;;;9.18;6.80;;;;;;;26.95;75.41;100312.38;5094771;28;20501;-66
2023/08/12 09:31:27;;;;;;;9.43;7.05;;;;;;;27.25;73.28;100325.09;5095055;28;20189;-65
2023/08/12 09:33:57;;;;;;;9.35;6.47;;;;;;;27.40;72.40;100332.44;5094935;28;20028;-66
2023/08/12 09:36:22;;;;;;;8.65;6.53;;;;;;;27.52;72.06;100326.63;5094841;28;20070;-66
2023/08/12 09:38:48;;;;;;;9.73;6.60;;;;;;;27.62;72.62;100329.25;5094825;28;20055;-65
2023/08/12 09:41:14;;;;;;;10.85;7.10;;;;;;;27.61;73.44;100326.81;5094713;28;20035;-66
2023/08/12 09:43:43;;;;;;;13.48;7.68;;;;;;;27.68;74.14;100319.09;5094656;28;20036;-66
2023/08/12 09:46:15;;;;;;;14.98;10.20;;;;;;;27.65;73.44;100314.19;5094752;28;20071;-64
2023/08/12 09:48:40;;;;;;;11.57;7.93;;;;;;;27.89;74.98;100319.78;5094443;28;20499;-65
2023/08/12 09:51:07;;;;;;;12.10;7.53;;;;;;;28.17;71.00;100318.16;5094793;28;20123;-65
2023/08/12 09:53:33;;;;;;;17.95;8.38;;;;;;;28.64;71.08;100309.22;5094562;28;20118;-67
2023/08/12 09:56:06;;;;;;;9.23;6.20;;;;;;;29.12;66.65;100293.56;5094391;28;20042;-65
2023/08/12 09:58:33;;;;;;;11.60;7.53;;;;;;;29.39;64.37;100297.56;5094061;28;20122;-65
2023/08/12 10:00:59;;;;;;;9.43;6.38;;;;;;;29.50;61.36;100303.72;5094321;28;20088;-65
2023/08/12 10:03:25;;;;;;;8.80;5.65;;;;;;;30.08;64.06;100303.34;5094547;28;20070;-66
2023/08/12 10:05:52;;;;;;;7.68;5.85;;;;;;;30.32;57.75;100309.53;5094393;28;20434;-66
2023/08/12 10:08:18;;;;;;;10.98;5.85;;;;;;;30.64;59.22;100302.31;5094005;28;20043;-67
2023/08/12 10:10:43;;;;;;;9.25;5.55;;;;;;;30.96;57.34;100306.91;5094232;28;20044;-67
2023/08/12 10:13:10;;;;;;;8.45;5.40;;;;;;;31.24;57.70;100308.53;5094010;28;20032;-66
2023/08/12 10:15:36;;;;;;;26.92;6.10;;;;;;;31.32;51.15;100305.03;5094928;28;20040;-61
2023/08/12 10:18:05;;;;;;;12.93;6.00;;;;;;;31.45;52.07;100305.28;5093041;28;20032;-59
2023/08/12 10:20:32;;;;;;;8.70;5.38;;;;;;;31.59;56.42;100319.81;5093688;28;20290;-67
2023/08/12 10:22:59;;;;;;;;;;;;;;;31.95;52.93;100318.97;5094457;28;20035;-66
2023/08/12 10:25:25;;;;;;;7.32;5.38;;;;;;;32.23;52.80;100311.38;5093767;28;19923;-67
2023/08/12 10:27:50;;;;;;;7.87;5.13;;;;;;;32.53;51.25;100313.28;5093842;28;20056;-66
2023/08/12 10:30:16;;;;;;;9.73;5.53;;;;;;;32.94;50.28;100312.19;5093627;28;20035;-66
2023/08/12 10:32:42;;;;;;;8.27;5.43;;;;;;;32.54;52.93;100319.63;5093777;28;20107;-66
2023/08/12 10:35:09;;;;;;;9.57;4.75;;;;;;;32.34;52.34;100330.09;5093844;28;20056;-66
2023/08/12 10:37:34;;;;;;;9.23;5.40;;;;;;;32.03;52.69;100323.72;5093806;28;20036;-66
2023/08/12 10:40:20;;;;;;;9.27;5.00;;;;;;;31.89;49.89;100326.56;5093435;28;20521;-66
2023/08/12 10:42:47;;;;;;;10.33;4.67;;;;;;;31.73;51.63;100328.81;5093695;28;20115;-66
2023/08/12 10:45:15;;;;;;;8.80;4.55;;;;;;;31.58;51.64;100320.94;5093474;28;20290;-67
2023/08/12 10:47:46;;;;;;;6.15;4.20;;;;;;;30.93;53.99;100340.53;5093502;28;20101;-66
2023/08/12 10:50:22;;;;;;;7.88;4.72;;;;;;;30.53;54.96;100345.69;5093426;28;20471;-66
2023/08/12 10:52:52;;;;;;;8.75;5.13;;;;;;;29.94;55.42;100367.28;5093603;28;20067;-67
2023/08/12 10:55:26;;;;;;;7.55;4.70;;;;;;;29.63;57.25;100369.66;5093215;28;20032;-67
2023/08/12 10:57:53;;;;;;;5.85;4.68;;;;;;;29.11;60.92;100381.59;5093082;28;20071;-67
2023/08/12 11:00:26;;;;;;;5.93;4.05;;;;;;;28.96;59.97;100371.66;5086913;28;20036;-67
2023/08/12 11:02:57;;;;;;;5.80;4.60;;;;;;;28.44;61.11;100348.63;5093855;28;20081;-67
2023/08/12 11:05:24;;;;;;;7.32;4.40;;;;;;;28.15;65.45;100325.84;5093192;28;20043;-67
2023/08/12 11:07:55;;;;;;;6.75;4.88;;;;;;;27.41;74.71;100333.25;5092987;28;20028;-67
2023/08/12 11:10:26;;;;;;;7.10;5.20;;;;;;;26.41;87.74;100340.44;5092736;28;20089;-67
2023/08/12 11:12:51;;;;;;;10.30;5.90;;;;;;;25.52;90.28;100343.63;5086094;28;20600;-67
2023/08/12 11:15:34;;;;;;;12.52;6.10;;;;;;;24.87;97.24;100343.09;5082901;28;20044;-68
2023/08/12 11:18:12;;;;;;;8.80;6.78;;;;;;;24.67;100.00;100337.56;5092626;28;20080;-68
2023/08/12 11:20:38;;;;;;;10.00;6.88;;;;;;;24.43;100.00;100332.50;5092672;28;20101;-68
2023/08/12 11:23:04;;;;;;;10.68;6.50;;;;;;;24.38;100.00;100337.09;5089332;28;20041;-68
2023/08/12 11:25:31;;;;;;;10.77;6.13;;;;;;;24.43;100.00;100342.56;5081178;28;20111;-67
2023/08/12 11:27:57;;;;;;;12.27;7.55;;;;;;;24.78;100.00;100341.97;5081605;28;20027;-67
2023/08/12 11:30:24;;;;;;;11.88;7.50;;;;;;;25.14;100.00;100341.06;5080480;28;20443;-67
2023/08/12 11:32:51;;;;;;;16.40;9.03;;;;;;;25.34;100.00;100345.75;5082733;28;20411;-67
2023/08/12 11:35:17;;;;;;;;;;;;;;;25.61;100.00;100347.44;5082386;28;20035;-68
2023/08/12 11:37:45;;;;;;;10.70;7.03;;;;;;;25.80;100.00;100342.31;5081952;28;19916;-66
2023/08/12 11:40:14;;;;;;;8.38;6.70;;;;;;;25.90;99.36;100345.06;5081770;28;20551;-67
2023/08/12 11:42:42;;;;;;;10.07;6.57;;;;;;;26.17;100.00;100340.16;5081875;28;20035;-66
2023/08/12 11:45:08;;;;;;;10.45;6.55;;;;;;;26.33;100.00;100332.75;5082309;28;20119;-67
2023/08/12 11:47:35;;;;;;;12.20;6.97;;;;;;;27.11;100.00;100336.94;5063005;28;20025;-67
2023/08/12 11:50:08;;;;;;;9.57;6.83;;;;;;;28.06;97.42;100328.41;5081794;28;20269;-66
2023/08/12 11:52:34;;;;;;;11.93;6.70;;;;;;;28.96;88.91;100333.25;5081554;28;20661;-67
2023/08/12 11:55:00;;;;;;;8.47;5.77;;;;;;;29.71;82.30;100324.25;5082545;28;20394;-67
2023/08/12 11:57:29;;;;;;;9.85;6.40;;;;;;;30.27;76.24;100326.09;5081281;28;20039;-67
2023/08/12 12:00:05;;;;;;;9.35;6.72;;;;;;;30.85;70.73;100320.06;5081955;28;20446;-65
2023/08/12 12:02:55;;;;;;;10.15;6.07;;;;;;;31.39;68.19;100323.03;5080806;28;20555;-67
2023/08/12 12:05:23;;;;;;;7.70;6.13;;;;;;;31.72;67.71;100320.88;5081366;28;20043;-66
2023/08/12 12:07:49;;;;;;;8.50;6.43;;;;;;;31.71;63.99;100324.78;5082339;28;20034;-66
2023/08/12 12:10:32;;;;;;;9.17;6.13;;;;;;;32.75;59.38;100317.13;5079705;28;20038;-66
2023/08/12 12:12:59;;;;;;;9.52;6.18;;;;;;;33.13;58.21;100314.66;5082576;28;20032;-66
2023/08/12 12:15:24;;;;;;;8.30;6.15;;;;;;;33.05;58.15;100327.28;5091727;28;20039;-66
2023/08/12 12:17:50;;;;;;;10.43;6.27;;;;;;;33.09;53.01;100321.94;5092002;28;20024;-66
2023/08/12 12:20:17;;;;;;;8.00;5.20;;;;;;;33.17;54.78;100330.22;5091090;28;20036;-66
2023/08/12 12:22:44;;;;;;;6.63;5.13;;;;;;;33.64;51.94;100322.13;5091155;28;20024;-67
2023/08/12 12:25:14;;;;;;;7.28;5.00;;;;;;;34.17;50.81;100334.78;5090747;28;20031;-66
2023/08/12 12:27:40;;;;;;;7.47;4.70;;;;;;;34.91;48.60;100325.22;5091750;28;20039;-66
2023/08/12 12:30:11;;;;;;;7.45;5.70;;;;;;;34.07;49.09;100314.97;5090780;28;20036;-66
2023/08/12 12:32:37;;;;;;;7.05;4.93;;;;;;;33.60;50.13;100315.66;5090328;28;20452;-67
2023/08/12 12:35:03;;;;;;;6.88;5.03;;;;;;;32.27;54.32;100320.59;5089360;28;20055;-67
2023/08/12 12:37:29;;;;;;;9.18;4.68;;;;;;;31.33;60.16;100322.34;5091575;28;20047;-66
2023/08/12 12:39:55;;;;;;;6.37;5.07;;;;;;;31.04;64.31;100326.25;5090939;28;20060;-66
2023/08/12 12:42:20;;;;;;;10.10;5.13;;;;;;;31.09;64.29;100314.31;5089917;28;20856;-66
2023/08/12 12:44:46;;;;;;;8.67;4.87;;;;;;;31.85;62.91;100317.28;5095833;28;20043;-66
2023/08/12 12:47:12;;;;;;;8.43;5.23;;;;;;;32.62;60.36;100319.66;5095665;28;20032;-66
2023/08/12 12:49:44;;;;;;;7.75;5.18;;;;;;;33.34;56.37;100317.59;5095029;28;20039;-66
2023/08/12 12:52:09;;;;;;;7.25;5.13;;;;;;;33.89;52.74;100314.97;5095471;28;20036;-66
2023/08/12 12:54:34;;;;;;;6.27;4.83;;;;;;;33.95;52.83;100321.97;5095653;28;20031;-66
2023/08/12 12:57:01;;;;;;;8.17;4.70;;;;;;;34.08;49.62;100308.31;5095406;28;20111;-66
2023/08/12 12:59:27;;;;;;;6.05;4.65;;;;;;;34.10;50.84;100317.06;5094714;28;20032;-66
2023/08/12 13:01:52;;;;;;;7.20;4.57;;;;;;;34.37;47.76;100326.94;5095479;28;20032;-67
2023/08/12 13:04:18;;;;;;;6.00;4.27;;;;;;;34.32;44.99;100321.56;5095237;28;20105;-66
2023/08/12 13:06:44;;;;;;;5.63;3.85;;;;;;;34.31;46.96;100318.00;5095324;28;20051;-66
2023/08/12 13:09:09;;;;;;;7.03;4.27;;;;;;;34.45;46.89;100324.16;5094596;28;20101;-66
2023/08/12 13:11:35;;;;;;;5.60;4.17;;;;;;;34.51;46.67;100320.06;5095049;28;20075;-66
2023/08/12 13:14:01;;;;;;;6.33;4.37;;;;;;;34.52;46.29;100324.44;5092912;28;20115;-66
2023/08/12 13:16:26;;;;;;;5.85;4.03;;;;;;;34.26;45.66;100326.47;5095015;28;20031;-66
2023/08/12 13:18:52;;;;;;;4.90;3.73;;;;;;;33.96;45.26;100312.53;5094490;28;20487;-66
2023/08/12 13:21:17;;;;;;;4.80;3.63;;;;;;;33.24;47.44;100323.41;5094883;28;20393;-66
2023/08/12 13:23:43;;;;;;;6.37;4.30;;;;;;;32.73;48.77;100327.63;5095111;28;20379;-66
2023/08/12 13:26:08;;;;;;;4.20;3.80;;;;;;;32.44;50.43;100326.25;5094840;28;20043;-66
2023/08/12 13:28:34;;;;;;;6.77;4.03;;;;;;;32.30;50.51;100320.00;5094169;28;20064;-66
2023/08/12 13:30:59;;;;;;;7.10;4.33;;;;;;;31.81;50.94;100322.59;5094957;28;20145;-66
2023/08/12 13:33:24;;;;;;;5.50;4.13;;;;;;;32.11;50.15;100315.50;5094777;28;20027;-66
2023/08/12 13:35:50;;;;;;;4.63;3.63;;;;;;;32.43;50.05;100319.09;5094680;28;20501;-66
2023/08/12 13:38:15;;;;;;;4.80;3.83;;;;;;;32.15;51.70;100312.94;5094014;28;20039;-67
2023/08/12 13:40:40;;;;;;;8.90;4.10;;;;;;;32.11;51.22;100304.47;5094737;28;20043;-66
2023/08/12 13:43:06;;;;;;;4.40;3.30;;;;;;;32.18;50.17;100305.97;5094502;28;20062;-67
2023/08/12 13:45:31;;;;;;;7.57;4.50;;;;;;;31.86;52.83;100303.19;5094696;28;20035;-66
2023/08/12 13:47:57;;;;;;;4.83;3.80;;;;;;;31.97;54.35;100298.25;5094732;28;20409;-67
2023/08/12 13:50:22;;;;;;;4.70;3.73;;;;;;;31.57;54.98;100291.81;5094352;28;20047;-67
2023/08/12 13:52:49;;;;;;;4.93;3.57;;;;;;;31.60;55.27;100294.72;5094432;28;20032;-66
2023/08/12 13:55:14;;;;;;;6.25;3.60;;;;;;;31.58;52.34;100291.47;5094323;28;20044;-66
2023/08/12 13:57:39;;;;;;;4.27;3.40;;;;;;;31.13;57.75;100289.75;5094618;28;20177;-66
2023/08/12 14:00:15;;;;;;;3.93;3.40;;;;;;;31.24;54.58;100280.19;5089346;28;20063;-66
2023/08/12 14:02:42;;;;;;;4.18;3.63;;;;;;;31.19;58.37;100277.53;5078835;28;20491;-66
2023/08/12 14:05:08;;;;;;;4.90;3.77;;;;;;;30.86;59.85;100282.38;5090733;28;20093;-66
2023/08/12 14:07:33;;;;;;;4.43;4.00;;;;;;;30.86;61.82;100279.63;5095194;28;20043;-66
2023/08/12 14:09:59;;;;;;;6.97;4.97;;;;;;;30.45;60.69;100281.25;5091597;28;20431;-66
2023/08/12 14:12:25;;;;;;;7.43;4.90;;;;;;;30.00;61.73;100278.22;5092998;28;20498;-65
2023/08/12 14:14:50;;;;;;;5.37;3.80;;;;;;;30.02;63.66;100271.59;5092761;28;20039;-66
2023/08/12 14:17:18;;;;;;;5.97;4.25;;;;;;;29.62;64.39;100273.94;5084647;28;20048;-66
2023/08/12 14:19:47;;;;;;;7.95;5.10;;;;;;;29.20;65.80;100289.31;5092923;28;20048;-66
2023/08/12 14:22:13;;;;;;;9.30;6.07;;;;;;;28.91;67.47;100283.94;5093490;28;20038;-66
2023/08/12 14:24:38;;;;;;;7.97;5.03;;;;;;;28.82;69.41;100252.81;5093731;28;20032;-65
2023/08/12 14:27:04;;;;;;;5.28;4.03;;;;;;;28.50;72.11;100259.81;5092203;28;20123;-66
2023/08/12 14:29:29;;;;;;;8.45;5.18;;;;;;;28.44;71.09;100257.41;5092660;28;20039;-65
2023/08/12 14:31:55;;;;;;;10.35;6.15;;;;;;;28.27;73.23;100244.13;5089579;28;20048;-66
2023/08/12 14:34:20;;;;;;;6.45;4.85;;;;;;;28.32;71.91;100260.56;5093435;28;20040;-66
2023/08/12 14:36:45;;;;;;;6.63;4.65;;;;;;;28.16;74.39;100281.75;5093665;28;20040;-66
2023/08/12 14:39:11;;;;;;;6.60;4.47;;;;;;;28.03;74.40;100290.63;5091516;28;20036;-66
2023/08/12 14:41:36;;;;;;;9.30;4.88;;;;;;;27.93;75.45;100302.50;5093321;28;20020;-66
2023/08/12 14:44:02;;;;;;;7.45;5.00;;;;;;;27.83;76.41;100300.66;5093019;28;20039;-66
2023/08/12 14:46:27;;;;;;;7.72;5.45;;;;;;;27.65;77.96;100298.63;5092804;28;20101;-65
2023/08/12 14:48:53;;;;;;;6.63;5.63;;;;;;;27.40;82.72;100307.00;5092702;28;20035;-59
2023/08/12 14:51:19;;;;;;;12.10;6.40;;;;;;;26.87;90.61;100299.31;5093130;28;20040;-58
2023/08/12 14:53:47;;;;;;;14.52;7.32;;;;;;;26.40;96.31;100294.25;5093035;28;20078;-53
2023/08/12 14:56:12;;;;;;;11.00;6.22;;;;;;;25.94;99.01;100303.31;5092891;28;20067;-64
2023/08/12 14:58:38;;;;;;;10.77;7.78;;;;;;;25.56;100.00;100304.66;5092054;28;20380;-57
2023/08/12 15:01:03;;;;;;;12.45;6.68;;;;;;;24.84;100.00;100322.69;5089023;28;20035;-53
2023/08/12 15:03:29;;;;;;;12.23;6.85;;;;;;;24.55;100.00;100330.41;5092764;28;20463;-55
2023/08/12 15:06:04;;;;;;;13.93;7.00;;;;;;;24.29;100.00;100336.75;5091903;28;20089;-58
2023/08/12 15:08:31;;;;;;;11.18;5.95;;;;;;;24.09;100.00;100332.78;5092422;28;20360;-53
2023/08/12 15:10:57;;;;;;;10.27;6.30;;;;;;;24.28;100.00;100321.50;5092704;28;20662;-54
2023/08/12 15:13:22;;;;;;;8.68;6.15;;;;;;;24.09;100.00;100321.09;5092195;28;20036;-57
2023/08/12 15:15:50;;;;;;;11.32;6.32;;;;;;;24.12;100.00;100319.72;5092316;28;20036;-56
2023/08/12 15:18:16;;;;;;;11.23;6.28;;;;;;;23.86;100.00;100326.88;5091752;28;20471;-59
2023/08/12 15:20:41;;;;;;;11.50;7.03;;;;;;;23.55;100.00;100327.41;5092423;28;20126;-56
2023/08/12 15:23:07;;;;;;;10.18;6.78;;;;;;;23.36;100.00;100347.03;5092356;28;20510;-57
2023/08/12 15:25:32;;;;;;;10.30;6.45;;;;;;;23.38;100.00;100350.31;5091951;28;20127;-66
2023/08/12 15:27:58;;;;;;;13.85;7.15;;;;;;;23.11;100.00;100367.38;5092649;28;20043;-67
2023/08/12 15:30:24;;;;;;;13.13;6.70;;;;;;;22.96;100.00;100384.31;5087986;28;20047;-66
2023/08/12 15:32:49;;;;;;;13.75;7.82;;;;;;;22.87;100.00;100420.28;5092308;28;20067;-66
2023/08/12 15:35:15;;;;;;;10.57;6.80;;;;;;;22.74;100.00;100419.53;5092433;28;20032;-66